sensor_id;sensor_type;location;lat;lon;timestamp;temperature;humidity
30459;DHT22;17254;50.976;7.034;2022-09-03T00:00:10;16.30;85.50
30459;DHT22;17254;50.976;7.034;2022-09-03T00:00:46;16.40;86.20
30459;DHT22;17254;50.976;7.034;2022-09-03T00:01:22;16.50;85.80
30459;DHT22;17254;50.976;7.034;2022-09-03T00:01:58;16.50;85.70
30459;DHT22;17254;50.976;7.034;2022-09-03T00:02:37;16.50;85.80
30459;DHT22;17254;50.976;7.034;2022-09-03T00:03:15;16.40;85.80
30459;DHT22;17254;50.976;7.034;2022-09-03T00:03:53;16.40;86.20
30459;DHT22;17254;50.976;7.034;2022-09-03T00:04:30;16.40;86.00
30459;DHT22;17254;50.976;7.034;2022-09-03T00:05:08;16.20;86.10
30459;DHT22;17254;50.976;7.034;2022-09-03T00:05:46;16.30;86.90
30459;DHT22;17254;50.976;7.034;2022-09-03T00:06:23;16.30;87.10
30459;DHT22;17254;50.976;7.034;2022-09-03T00:07:00;16.30;86.20
30459;DHT22;17254;50.976;7.034;2022-09-03T00:07:39;16.30;86.00
30459;DHT22;17254;50.976;7.034;2022-09-03T00:08:16;16.20;86.10
30459;DHT22;17254;50.976;7.034;2022-09-03T00:08:56;16.20;86.30
30459;DHT22;17254;50.976;7.034;2022-09-03T00:09:33;16.20;86.70
30459;DHT22;17254;50.976;7.034;2022-09-03T00:10:09;16.30;86.60
30459;DHT22;17254;50.976;7.034;2022-09-03T00:10:46;16.30;86.60
30459;DHT22;17254;50.976;7.034;2022-09-03T00:11:24;16.30;86.30
30459;DHT22;17254;50.976;7.034;2022-09-03T00:12:01;16.30;86.60
30459;DHT22;17254;50.976;7.034;2022-09-03T00:12:36;16.30;86.40
30459;DHT22;17254;50.976;7.034;2022-09-03T00:13:13;16.20;86.30
30459;DHT22;17254;50.976;7.034;2022-09-03T00:13:49;16.10;86.80
30459;DHT22;17254;50.976;7.034;2022-09-03T00:14:25;16.20;87.30
30459;DHT22;17254;50.976;7.034;2022-09-03T00:15:03;16.20;87.70
30459;DHT22;17254;50.976;7.034;2022-09-03T00:15:35;16.10;87.80
30459;DHT22;17254;50.976;7.034;2022-09-03T00:16:12;16.10;87.90
30459;DHT22;17254;50.976;7.034;2022-09-03T00:16:51;16.20;87.70
30459;DHT22;17254;50.976;7.034;2022-09-03T00:17:28;16.30;87.20
30459;DHT22;17254;50.976;7.034;2022-09-03T00:18:04;16.30;86.90
30459;DHT22;17254;50.976;7.034;2022-09-03T00:18:42;16.30;87.10
30459;DHT22;17254;50.976;7.034;2022-09-03T00:19:19;16.40;87.30
30459;DHT22;17254;50.976;7.034;2022-09-03T00:19:54;16.30;87.10
30459;DHT22;17254;50.976;7.034;2022-09-03T00:20:30;16.30;87.50
30459;DHT22;17254;50.976;7.034;2022-09-03T00:21:06;16.30;87.20
30459;DHT22;17254;50.976;7.034;2022-09-03T00:21:44;16.10;87.50
30459;DHT22;17254;50.976;7.034;2022-09-03T00:22:20;16.20;87.80
30459;DHT22;17254;50.976;7.034;2022-09-03T00:22:54;16.30;88.40
30459;DHT22;17254;50.976;7.034;2022-09-03T00:23:29;16.30;87.80
30459;DHT22;17254;50.976;7.034;2022-09-03T00:24:03;16.20;87.70
30459;DHT22;17254;50.976;7.034;2022-09-03T00:24:38;16.30;87.60
30459;DHT22;17254;50.976;7.034;2022-09-03T00:25:14;16.30;87.40
30459;DHT22;17254;50.976;7.034;2022-09-03T00:25:53;16.30;88.10
30459;DHT22;17254;50.976;7.034;2022-09-03T00:26:28;16.20;87.90
30459;DHT22;17254;50.976;7.034;2022-09-03T00:27:10;16.10;88.30
30459;DHT22;17254;50.976;7.034;2022-09-03T00:27:44;16.20;88.60
30459;DHT22;17254;50.976;7.034;2022-09-03T00:28:24;16.20;88.10
30459;DHT22;17254;50.976;7.034;2022-09-03T00:29:04;16.30;87.90
30459;DHT22;17254;50.976;7.034;2022-09-03T00:29:40;16.30;87.90
30459;DHT22;17254;50.976;7.034;2022-09-03T00:30:15;16.30;88.10
30459;DHT22;17254;50.976;7.034;2022-09-03T00:30:52;16.30;88.10
30459;DHT22;17254;50.976;7.034;2022-09-03T00:31:29;16.30;87.80
30459;DHT22;17254;50.976;7.034;2022-09-03T00:32:06;16.30;87.90
30459;DHT22;17254;50.976;7.034;2022-09-03T00:32:44;16.40;87.80
30459;DHT22;17254;50.976;7.034;2022-09-03T00:33:21;16.40;87.90
30459;DHT22;17254;50.976;7.034;2022-09-03T00:33:57;16.40;88.20
30459;DHT22;17254;50.976;7.034;2022-09-03T00:34:34;16.40;87.70
30459;DHT22;17254;50.976;7.034;2022-09-03T00:35:14;16.50;87.40
30459;DHT22;17254;50.976;7.034;2022-09-03T00:35:50;16.40;87.40
30459;DHT22;17254;50.976;7.034;2022-09-03T00:36:30;16.40;87.70
30459;DHT22;17254;50.976;7.034;2022-09-03T00:37:02;16.40;88.30
30459;DHT22;17254;50.976;7.034;2022-09-03T00:37:34;16.40;88.70
30459;DHT22;17254;50.976;7.034;2022-09-03T00:38:06;16.40;88.20
30459;DHT22;17254;50.976;7.034;2022-09-03T00:38:38;16.30;88.10
30459;DHT22;17254;50.976;7.034;2022-09-03T00:39:11;16.20;88.20
30459;DHT22;17254;50.976;7.034;2022-09-03T00:39:43;16.20;88.70
30459;DHT22;17254;50.976;7.034;2022-09-03T00:40:30;16.20;88.70
30459;DHT22;17254;50.976;7.034;2022-09-03T00:41:08;16.30;89.30
30459;DHT22;17254;50.976;7.034;2022-09-03T00:41:49;16.30;88.40
30459;DHT22;17254;50.976;7.034;2022-09-03T00:42:38;16.30;88.30
30459;DHT22;17254;50.976;7.034;2022-09-03T00:43:22;16.30;88.60
30459;DHT22;17254;50.976;7.034;2022-09-03T00:44:11;16.30;88.50
30459;DHT22;17254;50.976;7.034;2022-09-03T00:44:56;16.30;88.50
30459;DHT22;17254;50.976;7.034;2022-09-03T00:45:33;16.40;88.50
30459;DHT22;17254;50.976;7.034;2022-09-03T00:46:16;16.40;88.20
30459;DHT22;17254;50.976;7.034;2022-09-03T00:46:54;16.40;88.60
30459;DHT22;17254;50.976;7.034;2022-09-03T00:47:38;16.30;88.50
30459;DHT22;17254;50.976;7.034;2022-09-03T00:48:17;16.30;88.90
30459;DHT22;17254;50.976;7.034;2022-09-03T00:49:14;16.30;88.60
30459;DHT22;17254;50.976;7.034;2022-09-03T00:49:59;16.30;89.20
30459;DHT22;17254;50.976;7.034;2022-09-03T00:50:41;16.20;89.10
30459;DHT22;17254;50.976;7.034;2022-09-03T00:51:22;16.30;89.20
30459;DHT22;17254;50.976;7.034;2022-09-03T00:52:06;16.20;89.10
30459;DHT22;17254;50.976;7.034;2022-09-03T00:52:48;16.00;89.50
30459;DHT22;17254;50.976;7.034;2022-09-03T00:53:27;16.20;89.70
30459;DHT22;17254;50.976;7.034;2022-09-03T00:54:07;16.10;89.60
30459;DHT22;17254;50.976;7.034;2022-09-03T00:54:47;16.20;89.60
30459;DHT22;17254;50.976;7.034;2022-09-03T00:55:30;16.20;90.00
30459;DHT22;17254;50.976;7.034;2022-09-03T00:56:12;16.10;89.70
30459;DHT22;17254;50.976;7.034;2022-09-03T00:56:54;16.00;89.80
30459;DHT22;17254;50.976;7.034;2022-09-03T00:57:34;16.00;89.90
30459;DHT22;17254;50.976;7.034;2022-09-03T00:58:24;16.00;90.00
30459;DHT22;17254;50.976;7.034;2022-09-03T00:59:18;15.90;90.00
30459;DHT22;17254;50.976;7.034;2022-09-03T00:59:59;16.00;90.20
30459;DHT22;17254;50.976;7.034;2022-09-03T01:00:31;15.90;90.20
30459;DHT22;17254;50.976;7.034;2022-09-03T01:01:08;16.00;90.10
30459;DHT22;17254;50.976;7.034;2022-09-03T01:01:48;16.00;90.20
30459;DHT22;17254;50.976;7.034;2022-09-03T01:02:27;16.00;90.40
30459;DHT22;17254;50.976;7.034;2022-09-03T01:03:06;16.00;90.30
30459;DHT22;17254;50.976;7.034;2022-09-03T01:03:43;16.00;90.40
30459;DHT22;17254;50.976;7.034;2022-09-03T01:04:30;16.00;90.20
30459;DHT22;17254;50.976;7.034;2022-09-03T01:05:10;15.80;90.30
30459;DHT22;17254;50.976;7.034;2022-09-03T01:05:59;15.80;90.50
30459;DHT22;17254;50.976;7.034;2022-09-03T01:06:40;15.80;90.50
30459;DHT22;17254;50.976;7.034;2022-09-03T01:07:20;15.90;90.40
30459;DHT22;17254;50.976;7.034;2022-09-03T01:08:05;15.80;90.40
30459;DHT22;17254;50.976;7.034;2022-09-03T01:09:02;15.80;90.50
30459;DHT22;17254;50.976;7.034;2022-09-03T01:09:46;15.90;90.50
30459;DHT22;17254;50.976;7.034;2022-09-03T01:10:26;15.70;90.60
30459;DHT22;17254;50.976;7.034;2022-09-03T01:11:07;15.70;90.60
30459;DHT22;17254;50.976;7.034;2022-09-03T01:11:55;15.80;90.80
30459;DHT22;17254;50.976;7.034;2022-09-03T01:12:33;15.80;90.80
30459;DHT22;17254;50.976;7.034;2022-09-03T01:13:12;15.80;90.90
30459;DHT22;17254;50.976;7.034;2022-09-03T01:13:53;15.70;90.90
30459;DHT22;17254;50.976;7.034;2022-09-03T01:14:41;15.80;91.10
30459;DHT22;17254;50.976;7.034;2022-09-03T01:15:21;15.90;90.80
30459;DHT22;17254;50.976;7.034;2022-09-03T01:16:06;15.90;90.70
30459;DHT22;17254;50.976;7.034;2022-09-03T01:16:45;16.00;90.80
30459;DHT22;17254;50.976;7.034;2022-09-03T01:17:28;15.90;90.60
30459;DHT22;17254;50.976;7.034;2022-09-03T01:18:13;15.80;90.90
30459;DHT22;17254;50.976;7.034;2022-09-03T01:18:51;15.90;90.90
30459;DHT22;17254;50.976;7.034;2022-09-03T01:19:54;15.90;90.80
30459;DHT22;17254;50.976;7.034;2022-09-03T01:20:37;15.80;91.00
30459;DHT22;17254;50.976;7.034;2022-09-03T01:23:48;15.80;91.10
30459;DHT22;17254;50.976;7.034;2022-09-03T01:24:48;15.70;91.20
30459;DHT22;17254;50.976;7.034;2022-09-03T01:25:33;15.70;91.30
30459;DHT22;17254;50.976;7.034;2022-09-03T01:26:27;15.80;91.60
30459;DHT22;17254;50.976;7.034;2022-09-03T01:27:13;15.80;91.40
30459;DHT22;17254;50.976;7.034;2022-09-03T01:28:06;15.70;91.40
30459;DHT22;17254;50.976;7.034;2022-09-03T01:28:50;15.60;91.60
30459;DHT22;17254;50.976;7.034;2022-09-03T01:29:30;15.60;91.50
30459;DHT22;17254;50.976;7.034;2022-09-03T01:30:06;15.60;91.60
30459;DHT22;17254;50.976;7.034;2022-09-03T01:30:42;15.60;91.60
30459;DHT22;17254;50.976;7.034;2022-09-03T01:31:27;15.60;91.90
30459;DHT22;17254;50.976;7.034;2022-09-03T01:32:05;15.70;92.00
30459;DHT22;17254;50.976;7.034;2022-09-03T01:32:44;15.70;91.70
30459;DHT22;17254;50.976;7.034;2022-09-03T01:33:20;15.80;91.60
30459;DHT22;17254;50.976;7.034;2022-09-03T01:33:59;15.60;91.50
30459;DHT22;17254;50.976;7.034;2022-09-03T01:34:45;15.70;91.80
30459;DHT22;17254;50.976;7.034;2022-09-03T01:35:25;15.70;91.70
30459;DHT22;17254;50.976;7.034;2022-09-03T01:36:02;15.60;91.70
30459;DHT22;17254;50.976;7.034;2022-09-03T01:36:44;15.60;91.80
30459;DHT22;17254;50.976;7.034;2022-09-03T01:37:26;15.70;92.00
30459;DHT22;17254;50.976;7.034;2022-09-03T01:38:11;15.60;91.90
30459;DHT22;17254;50.976;7.034;2022-09-03T01:38:51;15.60;91.80
30459;DHT22;17254;50.976;7.034;2022-09-03T01:39:28;15.50;92.10
30459;DHT22;17254;50.976;7.034;2022-09-03T01:40:11;15.60;92.50
30459;DHT22;17254;50.976;7.034;2022-09-03T01:40:54;15.70;92.50
30459;DHT22;17254;50.976;7.034;2022-09-03T01:41:32;15.60;92.20
30459;DHT22;17254;50.976;7.034;2022-09-03T01:42:50;15.60;92.10
30459;DHT22;17254;50.976;7.034;2022-09-03T01:43:34;15.60;92.20
30459;DHT22;17254;50.976;7.034;2022-09-03T01:44:13;15.50;92.20
30459;DHT22;17254;50.976;7.034;2022-09-03T01:44:59;15.50;92.20
30459;DHT22;17254;50.976;7.034;2022-09-03T01:45:52;15.40;92.30
30459;DHT22;17254;50.976;7.034;2022-09-03T01:46:25;15.40;92.40
30459;DHT22;17254;50.976;7.034;2022-09-03T01:47:03;15.30;92.60
30459;DHT22;17254;50.976;7.034;2022-09-03T01:47:48;15.40;92.60
30459;DHT22;17254;50.976;7.034;2022-09-03T01:48:32;15.40;93.00
30459;DHT22;17254;50.976;7.034;2022-09-03T01:49:16;15.50;92.60
30459;DHT22;17254;50.976;7.034;2022-09-03T01:49:56;15.60;92.50
30459;DHT22;17254;50.976;7.034;2022-09-03T01:50:38;15.70;92.50
30459;DHT22;17254;50.976;7.034;2022-09-03T01:51:19;15.70;92.40
30459;DHT22;17254;50.976;7.034;2022-09-03T01:51:58;15.70;92.40
30459;DHT22;17254;50.976;7.034;2022-09-03T01:52:42;15.70;92.40
30459;DHT22;17254;50.976;7.034;2022-09-03T01:53:17;15.70;92.30
30459;DHT22;17254;50.976;7.034;2022-09-03T01:54:14;15.80;92.50
30459;DHT22;17254;50.976;7.034;2022-09-03T01:54:58;15.70;92.30
30459;DHT22;17254;50.976;7.034;2022-09-03T01:55:32;15.70;92.60
30459;DHT22;17254;50.976;7.034;2022-09-03T01:56:16;15.70;92.50
30459;DHT22;17254;50.976;7.034;2022-09-03T01:57:11;15.70;92.70
30459;DHT22;17254;50.976;7.034;2022-09-03T01:57:51;15.90;92.40
30459;DHT22;17254;50.976;7.034;2022-09-03T01:58:30;15.80;92.20
30459;DHT22;17254;50.976;7.034;2022-09-03T01:59:08;15.70;92.20
30459;DHT22;17254;50.976;7.034;2022-09-03T01:59:45;15.70;92.40
30459;DHT22;17254;50.976;7.034;2022-09-03T02:00:19;15.70;92.40
30459;DHT22;17254;50.976;7.034;2022-09-03T02:00:56;15.60;92.40
30459;DHT22;17254;50.976;7.034;2022-09-03T02:01:33;15.60;92.60
30459;DHT22;17254;50.976;7.034;2022-09-03T02:02:10;15.70;92.70
30459;DHT22;17254;50.976;7.034;2022-09-03T02:02:51;15.60;92.70
30459;DHT22;17254;50.976;7.034;2022-09-03T02:03:24;15.60;92.70
30459;DHT22;17254;50.976;7.034;2022-09-03T02:03:58;15.70;92.90
30459;DHT22;17254;50.976;7.034;2022-09-03T02:04:29;15.70;92.70
30459;DHT22;17254;50.976;7.034;2022-09-03T02:05:05;15.70;92.70
30459;DHT22;17254;50.976;7.034;2022-09-03T02:05:38;15.70;92.60
30459;DHT22;17254;50.976;7.034;2022-09-03T02:06:10;15.70;92.60
30459;DHT22;17254;50.976;7.034;2022-09-03T02:06:42;15.70;92.50
30459;DHT22;17254;50.976;7.034;2022-09-03T02:07:17;15.80;92.70
30459;DHT22;17254;50.976;7.034;2022-09-03T02:07:50;15.80;92.60
30459;DHT22;17254;50.976;7.034;2022-09-03T02:08:24;15.80;92.70
30459;DHT22;17254;50.976;7.034;2022-09-03T02:08:56;15.90;92.70
30459;DHT22;17254;50.976;7.034;2022-09-03T02:09:28;15.90;92.60
30459;DHT22;17254;50.976;7.034;2022-09-03T02:10:00;15.90;92.50
30459;DHT22;17254;50.976;7.034;2022-09-03T02:10:37;15.90;92.50
30459;DHT22;17254;50.976;7.034;2022-09-03T02:11:09;15.90;92.40
30459;DHT22;17254;50.976;7.034;2022-09-03T02:11:41;15.90;92.40
30459;DHT22;17254;50.976;7.034;2022-09-03T02:12:15;15.90;92.40
30459;DHT22;17254;50.976;7.034;2022-09-03T02:12:51;15.80;92.40
30459;DHT22;17254;50.976;7.034;2022-09-03T02:13:28;15.80;92.40
30459;DHT22;17254;50.976;7.034;2022-09-03T02:14:00;15.80;92.40
30459;DHT22;17254;50.976;7.034;2022-09-03T02:14:31;15.90;92.50
30459;DHT22;17254;50.976;7.034;2022-09-03T02:15:06;15.90;92.50
30459;DHT22;17254;50.976;7.034;2022-09-03T02:15:42;15.80;92.50
30459;DHT22;17254;50.976;7.034;2022-09-03T02:16:17;15.80;92.70
30459;DHT22;17254;50.976;7.034;2022-09-03T02:16:52;15.80;92.70
30459;DHT22;17254;50.976;7.034;2022-09-03T02:17:24;15.80;92.70
30459;DHT22;17254;50.976;7.034;2022-09-03T02:17:58;15.80;92.70
30459;DHT22;17254;50.976;7.034;2022-09-03T02:18:35;15.70;92.80
30459;DHT22;17254;50.976;7.034;2022-09-03T02:19:10;15.80;92.70
30459;DHT22;17254;50.976;7.034;2022-09-03T02:19:42;15.80;92.60
30459;DHT22;17254;50.976;7.034;2022-09-03T02:20:16;15.80;92.80
30459;DHT22;17254;50.976;7.034;2022-09-03T02:20:52;15.80;92.60
30459;DHT22;17254;50.976;7.034;2022-09-03T02:21:27;15.80;92.60
30459;DHT22;17254;50.976;7.034;2022-09-03T02:21:59;15.80;92.50
30459;DHT22;17254;50.976;7.034;2022-09-03T02:22:31;15.70;92.50
30459;DHT22;17254;50.976;7.034;2022-09-03T02:23:03;15.70;92.70
30459;DHT22;17254;50.976;7.034;2022-09-03T02:23:37;15.70;92.70
30459;DHT22;17254;50.976;7.034;2022-09-03T02:24:08;15.70;92.80
30459;DHT22;17254;50.976;7.034;2022-09-03T02:24:40;15.70;92.80
30459;DHT22;17254;50.976;7.034;2022-09-03T02:25:12;15.80;92.80
30459;DHT22;17254;50.976;7.034;2022-09-03T02:25:46;15.70;92.80
30459;DHT22;17254;50.976;7.034;2022-09-03T02:26:21;15.70;92.80
30459;DHT22;17254;50.976;7.034;2022-09-03T02:26:53;15.70;92.90
30459;DHT22;17254;50.976;7.034;2022-09-03T02:27:25;15.80;93.00
30459;DHT22;17254;50.976;7.034;2022-09-03T02:27:57;15.80;92.80
30459;DHT22;17254;50.976;7.034;2022-09-03T02:28:31;15.80;92.80
30459;DHT22;17254;50.976;7.034;2022-09-03T02:29:03;15.90;92.90
30459;DHT22;17254;50.976;7.034;2022-09-03T02:29:35;15.80;92.90
30459;DHT22;17254;50.976;7.034;2022-09-03T02:30:07;15.70;93.00
30459;DHT22;17254;50.976;7.034;2022-09-03T02:30:39;15.80;93.20
30459;DHT22;17254;50.976;7.034;2022-09-03T02:31:11;15.70;93.00
30459;DHT22;17254;50.976;7.034;2022-09-03T02:31:42;15.70;93.00
30459;DHT22;17254;50.976;7.034;2022-09-03T02:32:13;15.70;93.10
30459;DHT22;17254;50.976;7.034;2022-09-03T02:32:46;15.70;93.40
30459;DHT22;17254;50.976;7.034;2022-09-03T02:33:17;15.80;93.40
30459;DHT22;17254;50.976;7.034;2022-09-03T02:33:48;15.80;93.30
30459;DHT22;17254;50.976;7.034;2022-09-03T02:34:21;15.70;93.20
30459;DHT22;17254;50.976;7.034;2022-09-03T02:34:52;15.70;93.20
30459;DHT22;17254;50.976;7.034;2022-09-03T02:35:23;15.60;93.00
30459;DHT22;17254;50.976;7.034;2022-09-03T02:35:55;15.60;93.30
30459;DHT22;17254;50.976;7.034;2022-09-03T02:36:29;15.60;93.30
30459;DHT22;17254;50.976;7.034;2022-09-03T02:37:11;15.60;93.40
30459;DHT22;17254;50.976;7.034;2022-09-03T02:37:44;15.50;93.40
30459;DHT22;17254;50.976;7.034;2022-09-03T02:38:17;15.50;93.40
30459;DHT22;17254;50.976;7.034;2022-09-03T02:38:48;15.50;93.70
30459;DHT22;17254;50.976;7.034;2022-09-03T02:39:19;15.50;93.70
30459;DHT22;17254;50.976;7.034;2022-09-03T02:39:51;15.50;93.80
30459;DHT22;17254;50.976;7.034;2022-09-03T02:40:22;15.50;93.80
30459;DHT22;17254;50.976;7.034;2022-09-03T02:40:53;15.60;93.60
30459;DHT22;17254;50.976;7.034;2022-09-03T02:41:25;15.50;93.60
30459;DHT22;17254;50.976;7.034;2022-09-03T02:41:58;15.40;93.70
30459;DHT22;17254;50.976;7.034;2022-09-03T02:42:29;15.60;93.70
30459;DHT22;17254;50.976;7.034;2022-09-03T02:43:01;15.60;93.60
30459;DHT22;17254;50.976;7.034;2022-09-03T02:43:39;15.60;93.50
30459;DHT22;17254;50.976;7.034;2022-09-03T02:44:14;15.50;93.60
30459;DHT22;17254;50.976;7.034;2022-09-03T02:45:06;15.60;93.90
30459;DHT22;17254;50.976;7.034;2022-09-03T02:45:44;15.60;93.70
30459;DHT22;17254;50.976;7.034;2022-09-03T02:46:19;15.70;93.80
30459;DHT22;17254;50.976;7.034;2022-09-03T02:46:55;15.60;93.60
30459;DHT22;17254;50.976;7.034;2022-09-03T02:47:30;15.60;93.60
30459;DHT22;17254;50.976;7.034;2022-09-03T02:48:02;15.60;93.60
30459;DHT22;17254;50.976;7.034;2022-09-03T02:48:34;15.50;93.70
30459;DHT22;17254;50.976;7.034;2022-09-03T02:49:06;15.50;93.70
30459;DHT22;17254;50.976;7.034;2022-09-03T02:49:36;15.50;93.70
30459;DHT22;17254;50.976;7.034;2022-09-03T02:50:08;15.50;93.70
30459;DHT22;17254;50.976;7.034;2022-09-03T02:50:40;15.50;93.70
30459;DHT22;17254;50.976;7.034;2022-09-03T02:51:13;15.50;93.80
30459;DHT22;17254;50.976;7.034;2022-09-03T02:51:43;15.50;93.90
30459;DHT22;17254;50.976;7.034;2022-09-03T02:52:15;15.50;94.00
30459;DHT22;17254;50.976;7.034;2022-09-03T02:52:47;15.60;93.90
30459;DHT22;17254;50.976;7.034;2022-09-03T02:53:18;15.60;93.80
30459;DHT22;17254;50.976;7.034;2022-09-03T02:53:49;15.50;94.00
30459;DHT22;17254;50.976;7.034;2022-09-03T02:54:21;15.50;93.70
30459;DHT22;17254;50.976;7.034;2022-09-03T02:54:52;15.50;94.00
30459;DHT22;17254;50.976;7.034;2022-09-03T02:55:23;15.50;93.90
30459;DHT22;17254;50.976;7.034;2022-09-03T02:55:57;15.50;94.10
30459;DHT22;17254;50.976;7.034;2022-09-03T02:56:29;15.50;94.20
30459;DHT22;17254;50.976;7.034;2022-09-03T02:57:00;15.40;94.20
30459;DHT22;17254;50.976;7.034;2022-09-03T02:57:32;15.40;94.10
30459;DHT22;17254;50.976;7.034;2022-09-03T02:58:03;15.30;94.20
30459;DHT22;17254;50.976;7.034;2022-09-03T02:58:37;15.30;94.30
30459;DHT22;17254;50.976;7.034;2022-09-03T02:59:09;15.30;94.30
30459;DHT22;17254;50.976;7.034;2022-09-03T02:59:41;15.40;94.30
30459;DHT22;17254;50.976;7.034;2022-09-03T03:00:14;15.40;94.20
30459;DHT22;17254;50.976;7.034;2022-09-03T03:00:46;15.50;94.20
30459;DHT22;17254;50.976;7.034;2022-09-03T03:01:18;15.40;94.20
30459;DHT22;17254;50.976;7.034;2022-09-03T03:01:49;15.30;94.40
30459;DHT22;17254;50.976;7.034;2022-09-03T03:02:20;15.30;94.40
30459;DHT22;17254;50.976;7.034;2022-09-03T03:02:54;15.30;94.70
30459;DHT22;17254;50.976;7.034;2022-09-03T03:03:25;15.20;94.50
30459;DHT22;17254;50.976;7.034;2022-09-03T03:03:56;15.20;94.60
30459;DHT22;17254;50.976;7.034;2022-09-03T03:04:29;15.20;94.60
30459;DHT22;17254;50.976;7.034;2022-09-03T03:05:00;15.20;94.60
30459;DHT22;17254;50.976;7.034;2022-09-03T03:05:38;15.20;94.70
30459;DHT22;17254;50.976;7.034;2022-09-03T03:06:12;15.20;95.10
30459;DHT22;17254;50.976;7.034;2022-09-03T03:06:43;15.30;95.00
30459;DHT22;17254;50.976;7.034;2022-09-03T03:07:14;15.30;94.70
30459;DHT22;17254;50.976;7.034;2022-09-03T03:07:46;15.30;94.70
30459;DHT22;17254;50.976;7.034;2022-09-03T03:08:19;15.30;94.60
30459;DHT22;17254;50.976;7.034;2022-09-03T03:08:51;15.30;94.70
30459;DHT22;17254;50.976;7.034;2022-09-03T03:09:27;15.30;94.90
30459;DHT22;17254;50.976;7.034;2022-09-03T03:09:58;15.30;94.80
30459;DHT22;17254;50.976;7.034;2022-09-03T03:10:29;15.20;95.10
30459;DHT22;17254;50.976;7.034;2022-09-03T03:11:01;15.20;95.00
30459;DHT22;17254;50.976;7.034;2022-09-03T03:11:32;15.20;94.90
30459;DHT22;17254;50.976;7.034;2022-09-03T03:12:04;15.20;94.90
30459;DHT22;17254;50.976;7.034;2022-09-03T03:12:36;15.30;95.10
30459;DHT22;17254;50.976;7.034;2022-09-03T03:13:07;15.30;95.10
30459;DHT22;17254;50.976;7.034;2022-09-03T03:13:40;15.30;95.00
30459;DHT22;17254;50.976;7.034;2022-09-03T03:14:12;15.40;95.00
30459;DHT22;17254;50.976;7.034;2022-09-03T03:14:42;15.40;94.80
30459;DHT22;17254;50.976;7.034;2022-09-03T03:15:14;15.20;94.80
30459;DHT22;17254;50.976;7.034;2022-09-03T03:15:46;15.20;94.90
30459;DHT22;17254;50.976;7.034;2022-09-03T03:16:18;15.20;95.10
30459;DHT22;17254;50.976;7.034;2022-09-03T03:16:50;15.20;95.10
30459;DHT22;17254;50.976;7.034;2022-09-03T03:17:22;15.10;95.30
30459;DHT22;17254;50.976;7.034;2022-09-03T03:17:55;15.20;95.40
30459;DHT22;17254;50.976;7.034;2022-09-03T03:18:26;15.30;95.10
30459;DHT22;17254;50.976;7.034;2022-09-03T03:18:59;15.30;95.20
30459;DHT22;17254;50.976;7.034;2022-09-03T03:19:29;15.30;95.20
30459;DHT22;17254;50.976;7.034;2022-09-03T03:20:01;15.20;95.10
30459;DHT22;17254;50.976;7.034;2022-09-03T03:20:33;15.20;95.20
30459;DHT22;17254;50.976;7.034;2022-09-03T03:21:06;15.20;95.20
30459;DHT22;17254;50.976;7.034;2022-09-03T03:21:37;15.20;95.20
30459;DHT22;17254;50.976;7.034;2022-09-03T03:22:09;15.10;95.10
30459;DHT22;17254;50.976;7.034;2022-09-03T03:22:40;15.00;95.10
30459;DHT22;17254;50.976;7.034;2022-09-03T03:23:11;15.00;95.50
30459;DHT22;17254;50.976;7.034;2022-09-03T03:23:43;15.00;95.60
30459;DHT22;17254;50.976;7.034;2022-09-03T03:24:14;15.00;95.60
30459;DHT22;17254;50.976;7.034;2022-09-03T03:24:45;15.00;95.70
30459;DHT22;17254;50.976;7.034;2022-09-03T03:25:20;15.10;96.00
30459;DHT22;17254;50.976;7.034;2022-09-03T03:25:50;15.20;96.00
30459;DHT22;17254;50.976;7.034;2022-09-03T03:26:22;15.20;96.10
30459;DHT22;17254;50.976;7.034;2022-09-03T03:26:54;15.40;95.80
30459;DHT22;17254;50.976;7.034;2022-09-03T03:27:27;15.30;95.50
30459;DHT22;17254;50.976;7.034;2022-09-03T03:27:58;15.20;95.50
30459;DHT22;17254;50.976;7.034;2022-09-03T03:28:30;15.10;95.90
30459;DHT22;17254;50.976;7.034;2022-09-03T03:29:05;15.20;95.70
30459;DHT22;17254;50.976;7.034;2022-09-03T03:29:36;15.30;95.80
30459;DHT22;17254;50.976;7.034;2022-09-03T03:30:10;15.30;95.80
30459;DHT22;17254;50.976;7.034;2022-09-03T03:30:41;15.30;95.70
30459;DHT22;17254;50.976;7.034;2022-09-03T03:31:14;15.40;95.50
30459;DHT22;17254;50.976;7.034;2022-09-03T03:31:47;15.40;95.50
30459;DHT22;17254;50.976;7.034;2022-09-03T03:32:18;15.40;95.40
30459;DHT22;17254;50.976;7.034;2022-09-03T03:32:49;15.40;95.30
30459;DHT22;17254;50.976;7.034;2022-09-03T03:33:21;15.50;95.50
30459;DHT22;17254;50.976;7.034;2022-09-03T03:33:53;15.50;95.50
30459;DHT22;17254;50.976;7.034;2022-09-03T03:34:24;15.40;95.40
30459;DHT22;17254;50.976;7.034;2022-09-03T03:34:55;15.50;95.90
30459;DHT22;17254;50.976;7.034;2022-09-03T03:35:27;15.50;95.50
30459;DHT22;17254;50.976;7.034;2022-09-03T03:36:03;15.30;95.40
30459;DHT22;17254;50.976;7.034;2022-09-03T03:36:35;15.30;95.90
30459;DHT22;17254;50.976;7.034;2022-09-03T03:37:07;15.30;95.90
30459;DHT22;17254;50.976;7.034;2022-09-03T03:37:38;15.40;95.80
30459;DHT22;17254;50.976;7.034;2022-09-03T03:38:09;15.40;95.90
30459;DHT22;17254;50.976;7.034;2022-09-03T03:38:42;15.30;95.90
30459;DHT22;17254;50.976;7.034;2022-09-03T03:39:13;15.30;95.90
30459;DHT22;17254;50.976;7.034;2022-09-03T03:39:44;15.30;95.90
30459;DHT22;17254;50.976;7.034;2022-09-03T03:40:16;15.20;95.80
30459;DHT22;17254;50.976;7.034;2022-09-03T03:40:47;15.20;96.10
30459;DHT22;17254;50.976;7.034;2022-09-03T03:41:29;15.20;96.10
30459;DHT22;17254;50.976;7.034;2022-09-03T03:42:02;15.20;96.20
30459;DHT22;17254;50.976;7.034;2022-09-03T03:42:33;15.30;96.50
30459;DHT22;17254;50.976;7.034;2022-09-03T03:43:04;15.30;96.30
30459;DHT22;17254;50.976;7.034;2022-09-03T03:43:36;15.30;96.10
30459;DHT22;17254;50.976;7.034;2022-09-03T03:44:08;15.30;96.00
30459;DHT22;17254;50.976;7.034;2022-09-03T03:44:39;15.20;96.20
30459;DHT22;17254;50.976;7.034;2022-09-03T03:45:12;15.30;96.30
30459;DHT22;17254;50.976;7.034;2022-09-03T03:45:43;15.30;96.60
30459;DHT22;17254;50.976;7.034;2022-09-03T03:46:14;15.30;96.40
30459;DHT22;17254;50.976;7.034;2022-09-03T03:46:45;15.30;96.40
30459;DHT22;17254;50.976;7.034;2022-09-03T03:47:16;15.20;96.30
30459;DHT22;17254;50.976;7.034;2022-09-03T03:47:48;15.20;96.50
30459;DHT22;17254;50.976;7.034;2022-09-03T03:48:20;15.20;96.60
30459;DHT22;17254;50.976;7.034;2022-09-03T03:48:51;15.20;96.50
30459;DHT22;17254;50.976;7.034;2022-09-03T03:49:22;15.20;96.40
30459;DHT22;17254;50.976;7.034;2022-09-03T03:49:54;15.20;96.50
30459;DHT22;17254;50.976;7.034;2022-09-03T03:50:25;15.20;96.50
30459;DHT22;17254;50.976;7.034;2022-09-03T03:50:59;15.20;96.60
30459;DHT22;17254;50.976;7.034;2022-09-03T03:51:32;15.20;96.80